Front Circassia — V7JX6 — position and weather

sailwx.info

Track history (hours):
 
Tides and Currents Weather Stations Pressure Air Temp Water Temp Dewpoint Dewpoint Depression Visibility Wind Speed Wind Dir Waves Ship Positions

Front Circassia

Last reported at 2014-Jul-07 22:15 UTC. Time now 2014-Aug-21 10:13 UTC.
Position S 29°01' E 032°29'.
Warning: this ship's position is 44 days out of date.

Length 333 m; draft 21.7 m.

Type: Tanker. MMSI: 538002584.

Date/timePositionNaut miles runAvg speedWind from/ knotsBaromVisibWave heightAir tempDewpointWater temp
2014-Jul-07 22:15S 29°01' E 032°29'4911.9
2014-Jul-07 18:06S 29°36' E 031°48'712.0
2014-Jul-07 17:33S 29°38' E 031°41'1212.4
2014-Jul-07 16:33S 29°44' E 031°28'1313.3
2014-Jul-07 15:33S 29°50' E 031°14'5 5.0
2014-Jul-07 14:33S 29°52' E 031°09'3 3.2
2014-Jul-07 13:33S 29°55' E 031°09'1211.8
2014-Jul-07 12:33S 30°07' E 031°09'1312.9
2014-Jul-07 11:33S 30°19' E 031°06'  
Track history (hours):
 
Tides and Currents Weather Stations Pressure Air Temp Water Temp Dewpoint Dewpoint Depression Visibility Wind Speed Wind Dir Waves Ship Positions

Front Circassia

Last reported at 2014-Jul-07 22:15 UTC. Time now 2014-Aug-21 10:13 UTC.
Position S 29°01' E 032°29'.
Warning: this ship's position is 44 days out of date.

Length 333 m; draft 21.7 m.

Type: Tanker. MMSI: 538002584.

Date/timePositionNaut miles runAvg speedWind from/ knotsBaromVisibWave heightAir tempDewpointWater temp
2014-Jul-07 22:15S 29°01' E 032°29'4911.9
2014-Jul-07 18:06S 29°36' E 031°48'712.0
2014-Jul-07 17:33S 29°38' E 031°41'1212.4
2014-Jul-07 16:33S 29°44' E 031°28'1313.3
2014-Jul-07 15:33S 29°50' E 031°14'5 5.0
2014-Jul-07 14:33S 29°52' E 031°09'3 3.2
2014-Jul-07 13:33S 29°55' E 031°09'1211.8
2014-Jul-07 12:33S 30°07' E 031°09'1312.9
2014-Jul-07 11:33S 30°19' E 031°06'  

Dump ship's entire track history